createdAt,value
2022-12-15T00:00:19.650Z,92.35
2022-12-15T00:03:05.518Z,92.13
2022-12-15T00:05:51.198Z,92.56
2022-12-15T00:08:36.928Z,92.47
2022-12-15T00:11:22.565Z,92.48
2022-12-15T00:14:08.259Z,92.60
2022-12-15T00:16:54.220Z,92.92
2022-12-15T00:19:39.741Z,93.22
2022-12-15T00:22:25.826Z,93.25
2022-12-15T00:25:11.403Z,93.00
2022-12-15T00:27:58.030Z,92.87
2022-12-15T00:30:43.449Z,92.81
2022-12-15T00:33:30.863Z,92.78
2022-12-15T00:36:17.693Z,92.51
2022-12-15T00:38:45.629Z,92.67
2022-12-15T00:41:15.699Z,92.74
2022-12-15T00:43:43.224Z,92.58
2022-12-15T00:46:29.306Z,92.49
2022-12-15T00:48:56.816Z,92.92
2022-12-15T00:51:43.240Z,92.98
2022-12-15T00:54:29.480Z,92.84
2022-12-15T00:57:15.168Z,92.61
2022-12-15T01:00:00.940Z,93.28
2022-12-15T01:02:46.706Z,92.63
2022-12-15T01:05:32.786Z,92.77
2022-12-15T01:08:19.177Z,92.89
2022-12-15T01:11:05.053Z,92.37
2022-12-15T01:13:50.712Z,91.82
2022-12-15T01:16:36.235Z,92.36
2022-12-15T01:19:21.685Z,92.70
2022-12-15T01:21:49.935Z,92.50
2022-12-15T01:24:17.257Z,93.06
2022-12-15T01:26:44.059Z,93.12
2022-12-15T01:29:11.041Z,93.44
2022-12-15T01:31:38.048Z,93.15
2022-12-15T01:34:05.122Z,93.16
2022-12-15T01:36:32.222Z,92.96
2022-12-15T01:38:59.191Z,93.04
2022-12-15T01:41:26.259Z,92.81
2022-12-15T01:43:53.132Z,93.50
2022-12-15T01:46:22.491Z,93.29
2022-12-15T01:48:58.186Z,93.30
2022-12-15T01:51:39.755Z,92.83
2022-12-15T01:54:28.313Z,93.50
2022-12-15T01:57:00.031Z,93.46
2022-12-15T01:59:33.116Z,93.42
2022-12-15T02:02:00.636Z,93.09
2022-12-15T02:04:28.120Z,93.38
2022-12-15T02:06:55.045Z,93.41
2022-12-15T02:09:25.541Z,93.24
2022-12-15T02:12:35.093Z,93.46
2022-12-15T02:15:20.378Z,93.91
2022-12-15T02:18:05.017Z,93.79
2022-12-15T02:20:58.352Z,94.64
2022-12-15T02:23:46.838Z,94.36
2022-12-15T02:26:32.498Z,95.01
2022-12-15T02:29:17.309Z,95.08
2022-12-15T02:31:54.030Z,95.09
2022-12-15T02:34:45.733Z,95.10
2022-12-15T02:37:20.891Z,95.21
2022-12-15T02:39:47.831Z,94.74
2022-12-15T02:42:14.897Z,95.29
2022-12-15T02:45:05.974Z,95.22
2022-12-15T02:47:46.334Z,95.54
2022-12-15T02:50:24.411Z,95.84
2022-12-15T02:53:13.270Z,95.56
2022-12-15T02:56:02.120Z,96.11
2022-12-15T02:58:36.691Z,96.21
2022-12-15T03:01:30.953Z,96.16
2022-12-15T03:04:02.182Z,96.09
2022-12-15T03:06:29.356Z,95.77
2022-12-15T03:08:56.174Z,95.85
2022-12-15T03:11:23.268Z,95.72
2022-12-15T03:13:50.607Z,95.95
2022-12-15T03:16:17.720Z,96.23
2022-12-15T03:18:44.826Z,95.90
2022-12-15T03:21:11.785Z,95.27
2022-12-15T03:23:38.765Z,95.60
2022-12-15T03:26:06.713Z,95.09
2022-12-15T03:28:34.479Z,95.44
2022-12-15T03:31:01.632Z,95.76
2022-12-15T03:33:28.686Z,95.58
2022-12-15T03:35:56.137Z,95.29
2022-12-15T03:38:23.106Z,94.69
2022-12-15T03:40:50.221Z,94.52
2022-12-15T03:43:17.446Z,94.13
2022-12-15T03:45:44.505Z,93.91
2022-12-15T03:48:11.403Z,93.28
2022-12-15T03:50:38.344Z,93.33
2022-12-15T03:53:05.686Z,92.52
2022-12-15T03:55:33.440Z,91.85
2022-12-15T03:58:00.750Z,91.95
2022-12-15T04:00:29.037Z,91.38
2022-12-15T04:02:56.316Z,92.04
2022-12-15T04:05:25.955Z,92.23
2022-12-15T04:07:54.307Z,92.04
2022-12-15T04:10:22.271Z,92.23
2022-12-15T04:12:49.612Z,92.06
2022-12-15T04:15:16.652Z,91.98
2022-12-15T04:17:43.801Z,92.59
2022-12-15T04:20:11.318Z,92.39
2022-12-15T04:22:47.225Z,91.98
2022-12-15T04:25:42.146Z,91.78
2022-12-15T04:28:29.062Z,91.64
2022-12-15T04:31:28.937Z,91.10
2022-12-15T04:34:18.592Z,91.14
2022-12-15T04:37:06.869Z,90.94
2022-12-15T04:39:53.483Z,90.73
2022-12-15T04:42:39.752Z,91.02
2022-12-15T04:45:27.013Z,90.98
2022-12-15T04:48:12.711Z,91.14
2022-12-15T04:50:58.547Z,91.30
2022-12-15T04:53:44.375Z,91.60
2022-12-15T04:56:32.388Z,91.88
2022-12-15T04:59:18.457Z,91.09
2022-12-15T05:02:04.520Z,91.22
2022-12-15T05:04:50.429Z,91.39
2022-12-15T05:07:36.499Z,90.19
2022-12-15T05:10:22.926Z,90.51
2022-12-15T05:13:08.718Z,90.22
2022-12-15T05:15:54.913Z,90.43
2022-12-15T05:18:40.921Z,89.06
2022-12-15T05:21:26.991Z,88.13
2022-12-15T05:24:12.918Z,88.60
2022-12-15T05:26:58.702Z,88.54
2022-12-15T05:29:44.230Z,88.61
2022-12-15T05:32:13.620Z,89.26
2022-12-15T05:34:40.740Z,89.79
2022-12-15T05:37:07.865Z,90.86
2022-12-15T05:39:35.027Z,90.71
2022-12-15T05:42:01.970Z,91.13
2022-12-15T05:44:29.221Z,91.36
2022-12-15T05:46:56.764Z,91.95
2022-12-15T05:49:24.478Z,92.51
2022-12-15T05:51:51.592Z,92.95
2022-12-15T05:54:19.455Z,92.75
2022-12-15T05:56:50.565Z,92.94
2022-12-15T05:59:19.280Z,93.34
2022-12-15T06:01:46.841Z,93.97
2022-12-15T06:04:14.361Z,93.56
2022-12-15T06:06:42.301Z,93.02
2022-12-15T06:09:09.899Z,93.90
2022-12-15T06:11:37.762Z,94.36
2022-12-15T06:14:05.137Z,94.47
2022-12-15T06:16:33.247Z,94.32
2022-12-15T06:19:02.107Z,94.60
2022-12-15T06:21:37.445Z,94.20
2022-12-15T06:24:06.728Z,94.30
2022-12-15T06:26:36.981Z,94.67
2022-12-15T06:29:06.244Z,94.82
2022-12-15T06:31:34.080Z,95.25
2022-12-15T06:34:04.972Z,95.19
2022-12-15T06:36:32.329Z,94.82
2022-12-15T06:39:00.978Z,94.47
2022-12-15T06:41:30.481Z,94.95
2022-12-15T06:43:58.763Z,94.81
2022-12-15T06:46:28.127Z,94.80
2022-12-15T06:48:55.754Z,94.67
2022-12-15T06:51:23.179Z,94.78
2022-12-15T06:53:54.056Z,94.50
2022-12-15T06:56:27.272Z,93.93
2022-12-15T06:58:59.720Z,94.74
2022-12-15T07:01:27.669Z,94.19
2022-12-15T07:03:55.795Z,94.25
2022-12-15T07:06:23.426Z,94.56
2022-12-15T07:08:52.989Z,95.28
2022-12-15T07:11:21.229Z,94.77
2022-12-15T07:13:53.095Z,94.31
2022-12-15T07:16:21.993Z,93.72
2022-12-15T07:18:49.421Z,93.78
2022-12-15T07:21:17.121Z,93.08
2022-12-15T07:24:00.940Z,93.47
2022-12-15T07:26:28.951Z,93.21
2022-12-15T07:28:56.767Z,93.90
2022-12-15T07:31:24.380Z,93.58
2022-12-15T07:33:52.813Z,93.42
2022-12-15T07:36:20.394Z,93.93
2022-12-15T07:38:50.284Z,93.77
2022-12-15T07:41:19.801Z,94.11
2022-12-15T07:44:06.464Z,94.44
2022-12-15T07:46:36.597Z,94.70
2022-12-15T07:49:03.777Z,93.94
2022-12-15T07:51:30.946Z,94.45
2022-12-15T07:53:58.139Z,93.72
2022-12-15T07:56:25.165Z,93.41
2022-12-15T07:58:52.200Z,93.42
2022-12-15T08:01:19.378Z,93.31
2022-12-15T08:03:46.703Z,93.52
2022-12-15T08:06:15.360Z,93.75
2022-12-15T08:08:44.780Z,94.24
2022-12-15T08:11:17.048Z,93.95
2022-12-15T08:16:34.552Z,92.97
2022-12-15T08:19:02.170Z,92.89
2022-12-15T08:21:31.393Z,92.42
2022-12-15T08:23:58.470Z,91.38
2022-12-15T08:26:30.348Z,91.34
2022-12-15T08:29:24.473Z,91.36
2022-12-15T08:31:48.023Z,91.17
2022-12-15T08:34:15.105Z,91.51
2022-12-15T08:36:42.306Z,90.69
2022-12-15T08:39:09.684Z,90.60
2022-12-15T08:41:36.739Z,91.33
2022-12-15T08:44:04.263Z,90.76
2022-12-15T08:46:36.466Z,90.18
2022-12-15T08:49:04.387Z,90.36
2022-12-15T08:51:33.000Z,90.89
2022-12-15T08:54:01.324Z,90.21
2022-12-15T08:56:30.015Z,89.25
2022-12-15T08:58:59.276Z,89.78
2022-12-15T09:01:27.877Z,88.92
2022-12-15T09:03:56.651Z,87.80
2022-12-15T09:06:29.469Z,87.75
2022-12-15T09:08:59.210Z,87.80
2022-12-15T09:11:27.780Z,88.25
2022-12-15T09:13:54.913Z,87.53
2022-12-15T09:16:22.581Z,87.32
2022-12-15T09:18:55.653Z,87.31
2022-12-15T09:21:26.385Z,86.29
2022-12-15T09:23:55.560Z,86.74
2022-12-15T09:26:23.903Z,86.51
2022-12-15T09:28:51.813Z,87.32
2022-12-15T09:31:22.516Z,87.71
2022-12-15T09:33:52.688Z,87.16
2022-12-15T09:36:21.091Z,87.07
2022-12-15T09:38:48.475Z,86.85
2022-12-15T09:41:15.419Z,86.54
2022-12-15T09:44:00.926Z,86.81
2022-12-15T09:46:30.742Z,86.32
2022-12-15T09:49:03.308Z,86.55
2022-12-15T09:51:39.791Z,86.12
2022-12-15T09:54:08.741Z,86.13
2022-12-15T09:56:54.721Z,86.20
2022-12-15T09:59:41.730Z,86.29
2022-12-15T10:02:28.064Z,86.49
2022-12-15T10:05:16.212Z,86.20
2022-12-15T10:07:46.601Z,86.84
2022-12-15T10:10:40.698Z,87.81
2022-12-15T10:13:18.214Z,87.35
2022-12-15T10:15:46.831Z,87.64
2022-12-15T10:19:09.994Z,87.59
2022-12-15T10:21:37.279Z,87.50
2022-12-15T10:25:07.872Z,87.54
2022-12-15T10:27:46.706Z,87.66
2022-12-15T10:30:16.566Z,87.17
2022-12-15T10:32:52.014Z,87.43
2022-12-15T10:35:34.217Z,87.25
2022-12-15T10:38:06.571Z,87.73
2022-12-15T10:40:52.001Z,87.78
2022-12-15T10:43:41.066Z,87.09
2022-12-15T10:46:23.037Z,87.33
2022-12-15T10:48:52.983Z,87.19
2022-12-15T10:51:32.793Z,86.93
2022-12-15T10:54:13.470Z,87.43
2022-12-15T10:56:55.587Z,87.49
2022-12-15T10:59:31.988Z,87.25
2022-12-15T11:02:23.968Z,87.66
2022-12-15T11:05:18.481Z,87.83
2022-12-15T11:07:52.017Z,87.57
2022-12-15T11:10:29.990Z,87.74
2022-12-15T11:13:00.167Z,87.83
2022-12-15T11:15:45.634Z,87.89
2022-12-15T11:18:23.252Z,88.27
2022-12-15T11:21:07.892Z,88.60
2022-12-15T11:23:35.428Z,88.73
2022-12-15T11:26:22.372Z,88.63
2022-12-15T11:28:56.458Z,88.66
2022-12-15T11:31:51.331Z,88.35
2022-12-15T11:34:25.070Z,88.70
2022-12-15T11:37:01.381Z,88.25
2022-12-15T11:39:55.058Z,88.66
2022-12-15T11:42:56.364Z,88.62
2022-12-15T11:45:37.716Z,88.87
2022-12-15T11:48:07.759Z,88.91
2022-12-15T11:50:37.430Z,88.47
2022-12-15T11:53:20.095Z,88.64
2022-12-15T11:55:49.778Z,89.20
2022-12-15T11:58:32.582Z,89.12
2022-12-15T12:01:03.453Z,88.75
2022-12-15T12:04:05.583Z,89.36
2022-12-15T12:07:17.492Z,88.89
2022-12-15T12:09:56.434Z,89.39
2022-12-15T12:12:43.988Z,89.69
2022-12-15T12:15:41.726Z,90.06
2022-12-15T12:18:27.464Z,89.36
2022-12-15T12:21:21.361Z,88.91
2022-12-15T12:23:52.488Z,89.45
2022-12-15T12:27:02.924Z,88.83
2022-12-15T12:30:14.552Z,89.23
2022-12-15T12:32:54.502Z,89.94
2022-12-15T12:35:50.758Z,90.24
2022-12-15T12:38:25.190Z,90.41
2022-12-15T12:41:02.788Z,90.19
2022-12-15T12:43:36.838Z,90.18
2022-12-15T12:46:25.757Z,91.24
2022-12-15T12:49:04.940Z,90.93
2022-12-15T12:51:35.804Z,90.72
2022-12-15T12:54:30.992Z,90.88
2022-12-15T12:56:58.665Z,90.75
2022-12-15T12:59:29.051Z,90.89
2022-12-15T13:01:58.074Z,91.28
2022-12-15T13:04:33.910Z,90.88
2022-12-15T13:07:02.428Z,91.00
2022-12-15T13:09:44.952Z,90.40
2022-12-15T13:12:52.879Z,91.30
2022-12-15T13:15:42.595Z,90.88
2022-12-15T13:18:22.767Z,90.50
2022-12-15T13:20:58.252Z,90.40
2022-12-15T13:23:27.391Z,90.59
2022-12-15T13:25:57.311Z,91.02
2022-12-15T13:28:30.727Z,90.60
2022-12-15T13:31:17.077Z,89.45
2022-12-15T13:33:53.046Z,89.32
2022-12-15T13:36:38.527Z,89.40
2022-12-15T13:39:28.340Z,89.82
2022-12-15T13:44:51.685Z,89.81
2022-12-15T13:47:30.221Z,88.48
2022-12-15T13:50:14.801Z,89.37
2022-12-15T13:53:17.401Z,89.39
2022-12-15T13:55:52.735Z,88.98
2022-12-15T13:58:21.955Z,89.00
2022-12-15T14:00:54.851Z,88.67
2022-12-15T14:03:22.434Z,88.41
2022-12-15T14:05:56.831Z,88.52
2022-12-15T14:08:28.595Z,88.38
2022-12-15T14:11:06.948Z,87.73
2022-12-15T14:13:46.901Z,88.45
2022-12-15T14:16:22.449Z,87.71
2022-12-15T14:19:20.281Z,88.24
2022-12-15T14:21:57.965Z,87.30
2022-12-15T14:27:24.467Z,87.01
2022-12-15T14:30:29.596Z,86.28
2022-12-15T14:33:18.526Z,86.42
2022-12-15T14:35:55.544Z,86.09
2022-12-15T14:38:31.364Z,86.19
2022-12-15T14:41:02.091Z,86.51
2022-12-15T14:43:33.880Z,86.36
2022-12-15T14:46:11.886Z,87.20
2022-12-15T14:48:42.008Z,86.63
2022-12-15T14:51:17.571Z,87.12
2022-12-15T14:53:49.677Z,86.95
2022-12-15T14:56:25.712Z,87.15
2022-12-15T14:59:04.982Z,86.25
2022-12-15T15:01:42.291Z,87.14
2022-12-15T15:04:29.587Z,87.10
2022-12-15T15:07:00.250Z,86.40
2022-12-15T15:09:33.501Z,86.96
2022-12-15T15:12:08.061Z,87.14
2022-12-15T15:14:43.790Z,86.47
2022-12-15T15:17:14.858Z,87.26
2022-12-15T15:19:49.565Z,87.29
2022-12-15T15:22:42.460Z,86.81
2022-12-15T15:25:22.302Z,87.23
2022-12-15T15:27:50.004Z,88.56
2022-12-15T15:30:21.025Z,90.20
2022-12-15T15:32:55.706Z,90.18
2022-12-15T15:35:25.321Z,90.72
2022-12-15T15:37:59.379Z,90.84
2022-12-15T15:40:27.499Z,91.80
2022-12-15T15:42:55.676Z,91.70
2022-12-15T15:45:23.443Z,92.69
2022-12-15T15:47:52.747Z,93.35
2022-12-15T15:50:29.227Z,94.39
2022-12-15T15:52:57.444Z,94.63
2022-12-15T15:55:37.831Z,94.88
2022-12-15T15:58:11.401Z,95.13
2022-12-15T16:00:38.877Z,95.51
2022-12-15T16:03:06.588Z,95.34
2022-12-15T16:05:37.344Z,95.24
2022-12-15T16:08:05.532Z,95.42
2022-12-15T16:10:32.882Z,95.16
2022-12-15T16:13:03.392Z,95.59
2022-12-15T16:15:31.889Z,95.11
2022-12-15T16:18:03.914Z,95.25
2022-12-15T16:20:31.039Z,95.72
2022-12-15T16:23:02.899Z,95.78
2022-12-15T16:25:59.279Z,96.53
2022-12-15T16:28:31.517Z,96.17
2022-12-15T16:30:59.485Z,96.18
2022-12-15T16:33:26.987Z,94.95
2022-12-15T16:35:54.785Z,95.24
2022-12-15T16:38:28.465Z,95.22
2022-12-15T16:40:57.307Z,95.61
2022-12-15T16:43:31.456Z,96.35
2022-12-15T16:46:03.644Z,96.10
2022-12-15T16:48:31.426Z,96.37
2022-12-15T16:50:59.624Z,96.29
2022-12-15T16:53:30.481Z,95.51
2022-12-15T16:55:59.825Z,96.46
2022-12-15T16:58:28.866Z,96.08
2022-12-15T17:00:56.437Z,96.73
2022-12-15T17:03:26.161Z,96.54
2022-12-15T17:05:56.329Z,96.71
2022-12-15T17:08:27.531Z,96.32
2022-12-15T17:10:54.818Z,96.94
2022-12-15T17:13:26.600Z,96.85
2022-12-15T17:15:59.137Z,96.51
2022-12-15T17:18:26.574Z,97.00
2022-12-15T17:21:01.465Z,96.81
2022-12-15T17:23:29.327Z,97.56
2022-12-15T17:28:44.011Z,97.30
2022-12-15T17:31:18.803Z,96.51
2022-12-15T17:33:45.866Z,96.78
2022-12-15T17:36:15.674Z,97.52
2022-12-15T17:38:42.835Z,96.70
2022-12-15T17:41:35.071Z,97.01
2022-12-15T17:44:31.543Z,96.27
2022-12-15T17:46:52.051Z,96.57
2022-12-15T17:49:20.823Z,95.59
2022-12-15T17:51:50.692Z,96.23
2022-12-15T17:54:20.128Z,95.96
2022-12-15T17:56:49.353Z,97.22
2022-12-15T17:59:20.436Z,97.46
2022-12-15T18:01:47.664Z,97.89
2022-12-15T18:04:15.401Z,97.62
2022-12-15T18:06:46.437Z,97.65
2022-12-15T18:09:16.461Z,97.80
2022-12-15T18:11:45.329Z,97.73
2022-12-15T18:14:18.355Z,97.49
2022-12-15T18:16:46.361Z,98.25
2022-12-15T18:19:16.054Z,98.21
2022-12-15T18:21:43.023Z,98.17
2022-12-15T18:24:17.215Z,97.98
2022-12-15T18:26:44.622Z,98.26
2022-12-15T18:29:14.243Z,98.15
2022-12-15T18:31:42.431Z,98.90
2022-12-15T18:34:12.961Z,98.92
2022-12-15T18:36:40.299Z,98.96
2022-12-15T18:39:20.930Z,99.90
2022-12-15T18:41:48.485Z,98.98
2022-12-15T18:44:23.134Z,99.11
2022-12-15T18:46:55.095Z,98.95
2022-12-15T18:49:23.883Z,99.01
2022-12-15T18:51:51.107Z,99.41
2022-12-15T18:54:24.222Z,98.85
2022-12-15T18:56:51.734Z,99.20
2022-12-15T18:59:19.790Z,99.03
2022-12-15T19:01:48.957Z,98.67
2022-12-15T19:04:16.563Z,98.97
2022-12-15T19:06:47.847Z,98.62
2022-12-15T19:09:21.190Z,98.33
2022-12-15T19:12:15.566Z,98.05
2022-12-15T19:14:43.184Z,98.44
2022-12-15T19:17:30.553Z,98.05
2022-12-15T19:20:16.016Z,98.53
2022-12-15T19:22:44.500Z,98.11
2022-12-15T19:25:25.094Z,98.30
2022-12-15T19:28:00.066Z,98.03
2022-12-15T19:30:41.579Z,97.88
2022-12-15T19:33:11.308Z,97.38
2022-12-15T19:35:40.522Z,97.52
2022-12-15T19:38:11.251Z,97.22
2022-12-15T19:40:38.813Z,97.86
2022-12-15T19:43:07.155Z,97.81
2022-12-15T19:45:34.299Z,97.67
2022-12-15T19:48:04.541Z,98.17
2022-12-15T19:50:36.741Z,98.07
2022-12-15T19:53:10.474Z,97.50
2022-12-15T19:55:38.757Z,97.84
2022-12-15T19:58:26.952Z,97.82
2022-12-15T20:00:57.843Z,97.75
2022-12-15T20:03:26.216Z,98.28
2022-12-15T20:05:54.883Z,98.17
2022-12-15T20:08:25.773Z,98.51
2022-12-15T20:10:54.291Z,98.98
2022-12-15T20:13:22.479Z,99.34
2022-12-15T20:15:49.626Z,99.47
2022-12-15T20:18:16.649Z,99.06
2022-12-15T20:20:45.717Z,98.62
2022-12-15T20:23:29.501Z,98.17
2022-12-15T20:25:57.216Z,98.15
2022-12-15T20:28:27.134Z,97.50
2022-12-15T20:30:56.324Z,97.58
2022-12-15T20:33:23.468Z,97.73
2022-12-15T20:35:51.118Z,98.13
2022-12-15T20:38:21.012Z,98.09
2022-12-15T20:40:48.561Z,98.39
2022-12-15T20:43:17.859Z,98.79
2022-12-15T20:45:47.598Z,99.12
2022-12-15T20:48:15.671Z,99.43
2022-12-15T20:50:46.432Z,99.60
2022-12-15T20:53:19.757Z,99.50
2022-12-15T20:55:48.074Z,100.00
2022-12-15T20:58:16.035Z,99.90
2022-12-15T21:00:43.335Z,100.00
2022-12-15T21:03:26.473Z,100.00
2022-12-15T21:05:56.064Z,100.00
2022-12-15T21:08:26.057Z,100.00
2022-12-15T21:10:54.587Z,100.00
2022-12-15T21:13:27.438Z,100.00
2022-12-15T21:15:54.929Z,100.00
2022-12-15T21:21:18.891Z,100.00
2022-12-15T21:23:45.924Z,100.00
2022-12-15T21:26:15.833Z,100.00
2022-12-15T21:28:42.786Z,100.00
2022-12-15T21:31:10.227Z,100.00
2022-12-15T21:33:37.235Z,100.00
2022-12-15T21:36:04.623Z,100.00
2022-12-15T21:38:40.250Z,100.00
2022-12-15T21:41:16.014Z,100.00
2022-12-15T21:43:43.672Z,100.00
2022-12-15T21:46:15.190Z,100.00
2022-12-15T21:49:01.638Z,100.00
2022-12-15T21:51:39.042Z,100.00
2022-12-15T21:54:18.687Z,100.00
2022-12-15T21:56:48.190Z,99.78
2022-12-15T21:59:21.947Z,99.52
2022-12-15T22:01:49.764Z,99.69
2022-12-15T22:04:23.404Z,99.08
2022-12-15T22:06:51.115Z,99.24
2022-12-15T22:09:19.104Z,98.82
2022-12-15T22:11:48.628Z,98.83
2022-12-15T22:14:22.366Z,98.76
2022-12-15T22:16:49.809Z,98.70
2022-12-15T22:19:17.182Z,98.58
2022-12-15T22:21:44.130Z,98.55
2022-12-15T22:24:11.839Z,98.21
2022-12-15T22:26:40.273Z,98.56
2022-12-15T22:29:25.822Z,98.41
2022-12-15T22:31:52.822Z,98.47
2022-12-15T22:34:24.583Z,98.05
2022-12-15T22:36:52.099Z,98.05
2022-12-15T22:39:19.473Z,97.77
2022-12-15T22:41:50.117Z,97.73
2022-12-15T22:44:26.182Z,97.67
2022-12-15T22:46:56.342Z,97.76
2022-12-15T22:49:29.217Z,97.40
2022-12-15T22:51:56.330Z,97.42
2022-12-15T22:54:27.565Z,97.60
2022-12-15T22:56:59.459Z,97.30
2022-12-15T22:59:31.937Z,97.60
2022-12-15T23:02:02.173Z,98.47
2022-12-15T23:04:30.825Z,98.87
2022-12-15T23:07:00.221Z,98.67
2022-12-15T23:09:27.177Z,99.60
2022-12-15T23:11:54.214Z,99.52
2022-12-15T23:14:44.986Z,99.53
2022-12-15T23:17:13.154Z,99.86
2022-12-15T23:19:47.099Z,100.00
2022-12-15T23:22:14.488Z,99.77
2022-12-15T23:24:41.785Z,99.54
2022-12-15T23:27:12.654Z,99.89
2022-12-15T23:29:39.947Z,99.29
2022-12-15T23:32:06.945Z,99.13
2022-12-15T23:34:35.220Z,99.47
2022-12-15T23:37:02.580Z,99.04
2022-12-15T23:39:29.685Z,99.25
2022-12-15T23:41:56.688Z,99.00
2022-12-15T23:44:23.610Z,98.77
2022-12-15T23:46:50.744Z,99.14
2022-12-15T23:49:17.630Z,98.71
2022-12-15T23:51:44.659Z,98.65
2022-12-15T23:54:11.619Z,99.20
2022-12-15T23:56:39.352Z,99.07
2022-12-15T23:59:06.631Z,98.58
